Time;durP1;ratioP1;P1;durP2;ratioP2;P2;SDS_P1;SDS_P2;PMS_P1;PMS_P2;Temp;Humidity;BMP_temperature;BMP_pressure;BME280_temperature;BME280_humidity;BME280_pressure;Samples;Min_cycle;Max_cycle;Signal;HPM_P1;HPM_P2
2021/03/17 00:02:27;;;;;;;76.15;29.17;;;;;;;4.24;100.00;102421.34;5203203;28;20041;-68
2021/03/17 00:04:57;;;;;;;68.10;28.20;;;;;;;4.29;100.00;102423.75;5203919;28;20025;-68
2021/03/17 00:07:27;;;;;;;68.32;28.45;;;;;;;4.30;100.00;102434.28;5203590;28;20049;-68
2021/03/17 00:09:58;;;;;;;76.15;30.38;;;;;;;4.24;100.00;102431.97;5203469;28;20486;-68
2021/03/17 00:12:28;;;;;;;62.58;26.02;;;;;;;4.31;100.00;102445.78;5202257;28;20457;-68
2021/03/17 00:14:59;;;;;;;64.60;26.63;;;;;;;4.32;100.00;102444.84;5203662;28;20045;-68
2021/03/17 00:17:29;;;;;;;67.45;26.58;;;;;;;4.31;100.00;102451.09;5202669;28;20033;-68
2021/03/17 00:20:00;;;;;;;64.70;27.20;;;;;;;4.25;100.00;102457.59;5203609;28;20031;-68
2021/03/17 00:22:30;;;;;;;70.13;29.10;;;;;;;4.22;100.00;102462.22;5203117;28;20024;-68
2021/03/17 00:25:02;;;;;;;59.17;26.88;;;;;;;4.26;100.00;102464.63;5202804;28;20082;-68
2021/03/17 00:27:32;;;;;;;59.15;26.35;;;;;;;4.27;100.00;102465.50;5201803;28;20036;-68
2021/03/17 00:30:05;;;;;;;58.25;24.95;;;;;;;4.24;100.00;102466.53;5201814;28;20402;-68
2021/03/17 00:32:36;;;;;;;58.03;24.80;;;;;;;4.24;100.00;102470.97;5202998;28;20466;-68
2021/03/17 00:35:07;;;;;;;55.90;24.00;;;;;;;4.21;100.00;102476.44;5203123;28;20024;-68
2021/03/17 00:37:38;;;;;;;53.10;24.65;;;;;;;4.23;100.00;102485.22;5202388;28;20033;-68
2021/03/17 00:40:09;;;;;;;54.83;25.42;;;;;;;4.20;100.00;102490.69;5202513;28;20090;-68
2021/03/17 00:42:39;;;;;;;60.88;26.27;;;;;;;4.21;100.00;102490.59;5202768;28;20033;-68
2021/03/17 00:45:10;;;;;;;57.33;24.33;;;;;;;4.19;100.00;102494.28;5203010;28;20025;-68
2021/03/17 00:47:41;;;;;;;65.47;27.85;;;;;;;4.20;100.00;102491.53;5202453;28;20405;-68
2021/03/17 00:50:13;;;;;;;60.25;27.05;;;;;;;4.20;100.00;102502.16;5202032;28;20031;-68
2021/03/17 00:52:44;;;;;;;64.68;29.40;;;;;;;4.19;100.00;102503.13;5202388;28;20401;-69
2021/03/17 00:55:15;;;;;;;70.00;27.58;;;;;;;4.19;100.00;102508.44;5202744;28;20029;-69
2021/03/17 00:57:45;;;;;;;67.38;28.30;;;;;;;4.20;100.00;102509.28;5202277;28;20052;-68
2021/03/17 01:00:17;;;;;;;78.10;32.15;;;;;;;4.25;100.00;102505.41;5202780;28;20167;-68
2021/03/17 01:02:49;;;;;;;71.38;29.90;;;;;;;4.27;100.00;102523.97;5201876;28;20029;-68
2021/03/17 01:05:19;;;;;;;78.45;31.05;;;;;;;4.25;100.00;102521.38;5202621;28;20179;-68
2021/03/17 01:07:50;;;;;;;77.38;33.00;;;;;;;4.26;100.00;102520.41;5196992;28;20514;-69
2021/03/17 01:10:27;;;;;;;78.75;31.85;;;;;;;4.26;100.00;102523.06;5197415;28;20477;-68
2021/03/17 01:12:57;;;;;;;71.93;30.52;;;;;;;4.20;100.00;102536.69;5201372;28;20026;-68
2021/03/17 01:15:28;;;;;;;71.80;29.17;;;;;;;4.17;100.00;102534.22;5202586;28;20032;-68
2021/03/17 01:17:59;;;;;;;67.10;27.98;;;;;;;4.13;100.00;102535.34;5202134;28;20034;-69
2021/03/17 01:20:30;;;;;;;56.15;25.30;;;;;;;4.08;100.00;102542.69;5201914;28;20025;-68
2021/03/17 01:23:01;;;;;;;57.63;25.27;;;;;;;4.07;100.00;102548.94;5202037;28;20027;-68
2021/03/17 01:25:35;;;;;;;53.95;24.52;;;;;;;4.09;100.00;102547.91;5201265;28;20028;-69
2021/03/17 01:28:07;;;;;;;52.53;21.08;;;;;;;4.06;100.00;102553.38;5201791;28;20075;-68
2021/03/17 01:30:47;;;;;;;47.28;19.58;;;;;;;4.05;100.00;102559.63;5201559;28;20379;-69
2021/03/17 01:33:18;;;;;;;51.65;20.58;;;;;;;4.04;100.00;102557.06;5201745;28;20025;-69
2021/03/17 01:35:49;;;;;;;48.95;20.98;;;;;;;4.03;100.00;102558.03;5201481;28;20031;-69
2021/03/17 01:38:19;;;;;;;49.97;21.00;;;;;;;4.01;100.00;102566.03;5201339;28;20032;-69
2021/03/17 01:40:52;;;;;;;40.05;18.13;;;;;;;3.96;100.00;102561.91;5201851;28;20017;-69
2021/03/17 01:43:23;;;;;;;40.55;17.52;;;;;;;3.89;100.00;102578.19;5201371;28;20029;-69
2021/03/17 01:45:54;;;;;;;36.72;16.95;;;;;;;3.88;100.00;102570.31;5201827;28;20064;-69
2021/03/17 01:48:25;;;;;;;36.38;17.25;;;;;;;3.85;100.00;102576.63;5200959;28;20053;-69
2021/03/17 01:50:57;;;;;;;38.50;16.80;;;;;;;3.82;100.00;102579.47;5201213;28;20013;-69
2021/03/17 01:53:31;;;;;;;34.03;16.02;;;;;;;3.80;100.00;102578.66;5201623;28;20512;-69
2021/03/17 01:56:03;;;;;;;35.28;17.02;;;;;;;3.84;100.00;102596.16;5201647;28;20033;-69
2021/03/17 01:58:35;;;;;;;37.72;17.00;;;;;;;3.81;100.00;102614.03;5200446;28;20021;-69
2021/03/17 02:01:06;;;;;;;39.10;17.58;;;;;;;3.73;100.00;102608.28;5200586;28;20025;-68
2021/03/17 02:03:36;;;;;;;44.25;19.10;;;;;;;3.69;100.00;102612.88;5201760;28;20444;-68
2021/03/17 02:06:07;;;;;;;42.75;18.75;;;;;;;3.64;100.00;102614.91;5201654;28;20132;-68
2021/03/17 02:08:41;;;;;;;43.05;18.45;;;;;;;3.57;100.00;102621.47;5201346;28;20021;-69
2021/03/17 02:11:12;;;;;;;45.45;19.80;;;;;;;3.59;100.00;102638.16;5201380;28;20458;-68
2021/03/17 02:14:11;;;;;;;41.72;18.45;;;;;;;3.59;100.00;102651.44;5201811;28;20064;-68
2021/03/17 02:16:48;;;;;;;44.00;18.63;;;;;;;3.55;100.00;102647.22;5190830;28;20079;-68
2021/03/17 02:19:45;;;;;;;44.85;19.55;;;;;;;3.61;100.00;102649.56;5206420;28;21661;-68
2021/03/17 02:22:47;;;;;;;43.95;19.60;;;;;;;3.55;100.00;102649.88;5200987;28;20386;-68
2021/03/17 02:25:35;;;;;;;42.05;19.80;;;;;;;3.53;100.00;102646.44;5201888;28;20022;-68
2021/03/17 02:28:17;;;;;;;42.60;19.85;;;;;;;3.47;100.00;102638.81;5188753;28;20052;-69
2021/03/17 02:31:06;;;;;;;49.15;21.63;;;;;;;3.46;100.00;102631.75;5201162;28;20064;-68
2021/03/17 02:33:45;;;;;;;47.28;21.10;;;;;;;3.49;100.00;102621.84;5201100;28;20033;-68
2021/03/17 02:36:22;;;;;;;43.60;20.20;;;;;;;3.48;100.00;102624.59;5216363;28;20029;-68
2021/03/17 02:39:04;;;;;;;45.33;20.55;;;;;;;3.50;100.00;102625.34;5201432;28;20045;-69
2021/03/17 02:41:49;;;;;;;52.35;22.13;;;;;;;3.45;100.00;102620.28;5201452;28;20434;-69
2021/03/17 02:44:23;;;;;;;48.33;21.58;;;;;;;3.44;100.00;102618.56;5189872;28;20520;-68
2021/03/17 02:47:00;;;;;;;47.67;21.35;;;;;;;3.46;100.00;102613.19;5201354;28;20041;-69
2021/03/17 02:49:38;;;;;;;58.20;23.42;;;;;;;3.47;100.00;102617.56;5201874;28;20417;-68
2021/03/17 02:52:10;;;;;;;50.03;21.15;;;;;;;3.52;100.00;102616.41;5202274;28;20064;-68
2021/03/17 02:54:44;;;;;;;48.35;21.35;;;;;;;3.48;100.00;102622.78;5205329;28;20021;-68
2021/03/17 02:57:17;;;;;;;;;;;;;;;3.52;100.00;102612.91;5205074;28;20543;-68
2021/03/17 02:59:52;;;;;;;43.72;20.58;;;;;;;3.45;100.00;102614.97;5205251;28;19909;-68
2021/03/17 03:02:23;;;;;;;48.42;21.38;;;;;;;3.40;100.00;102618.78;5204581;28;20501;-69
2021/03/17 03:04:54;;;;;;;49.25;23.05;;;;;;;3.44;100.00;102626.53;5204900;28;20028;-68
2021/03/17 03:07:27;;;;;;;49.63;21.25;;;;;;;3.60;100.00;102629.25;5204478;28;20060;-68
2021/03/17 03:10:00;;;;;;;53.47;22.75;;;;;;;3.58;100.00;102625.84;5205011;28;20025;-67
2021/03/17 03:12:31;;;;;;;53.08;21.30;;;;;;;3.56;100.00;102622.38;5203432;28;20523;-68
2021/03/17 03:15:04;;;;;;;53.92;21.95;;;;;;;3.53;100.00;102623.41;5205096;28;20025;-68
2021/03/17 03:17:36;;;;;;;51.75;22.25;;;;;;;3.48;100.00;102608.66;5205067;28;20045;-68
2021/03/17 03:20:10;;;;;;;60.25;24.25;;;;;;;3.52;100.00;102611.09;5203777;28;20026;-68
2021/03/17 03:22:43;;;;;;;60.28;25.13;;;;;;;3.48;100.00;102614.84;5203442;28;20017;-69
2021/03/17 03:25:15;;;;;;;57.65;24.15;;;;;;;3.52;100.00;102615.53;5204744;28;20493;-68
2021/03/17 03:27:46;;;;;;;58.40;24.73;;;;;;;3.50;100.00;102610.28;5204249;28;20033;-69
2021/03/17 03:30:23;;;;;;;57.15;24.70;;;;;;;3.47;100.00;102613.13;5203626;28;20021;-68
2021/03/17 03:32:54;;;;;;;61.00;24.70;;;;;;;3.51;100.00;102619.09;5204394;28;20094;-69
2021/03/17 03:35:27;;;;;;;63.97;27.80;;;;;;;3.57;100.00;102610.88;5204970;28;20040;-69
2021/03/17 03:37:57;;;;;;;53.55;24.10;;;;;;;3.59;100.00;102612.50;5204014;28;20040;-68
2021/03/17 03:40:28;;;;;;;62.50;24.55;;;;;;;3.58;100.00;102623.19;5204186;28;20033;-68
2021/03/17 03:42:58;;;;;;;62.88;25.80;;;;;;;3.59;100.00;102628.41;5203519;28;20100;-69
2021/03/17 03:45:29;;;;;;;62.95;25.60;;;;;;;3.59;100.00;102632.88;5204748;28;20032;-68
2021/03/17 03:48:00;;;;;;;66.82;27.52;;;;;;;3.58;100.00;102626.69;5203761;28;20100;-68
2021/03/17 03:50:34;;;;;;;68.47;27.65;;;;;;;3.62;100.00;102630.91;5203576;28;20033;-69
2021/03/17 03:53:16;;;;;;;64.45;28.00;;;;;;;3.60;100.00;102626.63;5203757;28;20025;-69
2021/03/17 03:55:53;;;;;;;70.07;27.88;;;;;;;3.58;100.00;102615.22;5200947;28;20021;-68
2021/03/17 03:58:31;;;;;;;70.57;28.05;;;;;;;3.55;100.00;102610.91;5202425;28;20017;-68
2021/03/17 04:01:07;;;;;;;74.80;28.80;;;;;;;3.55;100.00;102605.63;5203786;28;20478;-68
2021/03/17 04:03:41;;;;;;;;;;;;;;;3.55;100.00;102605.63;5202647;28;20039;-69
2021/03/17 04:06:14;;;;;;;76.43;28.60;;;;;;;3.52;100.00;102608.44;5204164;28;19913;-68
2021/03/17 04:08:48;;;;;;;77.57;29.55;;;;;;;3.52;100.00;102618.19;5203887;28;21782;-69
2021/03/17 04:11:19;;;;;;;80.15;30.15;;;;;;;3.51;100.00;102624.41;5203380;28;20412;-69
2021/03/17 04:13:50;;;;;;;87.53;33.65;;;;;;;3.48;100.00;102624.59;5203844;28;20025;-69
2021/03/17 04:16:23;;;;;;;108.95;41.80;;;;;;;3.50;100.00;102628.88;5203355;28;20075;-68
2021/03/17 04:18:56;;;;;;;124.88;50.00;;;;;;;3.58;100.00;102626.69;5203715;28;20051;-68
2021/03/17 04:21:29;;;;;;;114.43;47.30;;;;;;;3.55;100.00;102618.88;5203356;28;20018;-67
2021/03/17 04:24:03;;;;;;;114.70;50.17;;;;;;;3.56;100.00;102630.34;5203392;28;20021;-68
2021/03/17 04:26:35;;;;;;;90.30;35.40;;;;;;;3.61;100.00;102630.97;5203371;28;20505;-68
2021/03/17 04:29:06;;;;;;;113.18;46.63;;;;;;;3.56;100.00;102633.88;5202663;28;20111;-69
2021/03/17 04:31:38;;;;;;;92.50;36.00;;;;;;;3.55;100.00;102634.81;5203020;28;20036;-68
2021/03/17 04:34:10;;;;;;;114.70;46.00;;;;;;;3.59;100.00;102635.53;5203264;28;20493;-68
2021/03/17 04:36:42;;;;;;;98.85;38.65;;;;;;;3.58;100.00;102642.63;5203498;28;20025;-68
2021/03/17 04:39:13;;;;;;;121.97;50.45;;;;;;;3.61;100.00;102628.31;5202373;28;20080;-67
2021/03/17 04:41:45;;;;;;;134.30;63.97;;;;;;;3.63;100.00;102629.97;5202978;28;20055;-69
2021/03/17 04:44:16;;;;;;;93.45;41.83;;;;;;;3.64;100.00;102630.84;5202641;28;20033;-69
2021/03/17 04:46:48;;;;;;;95.55;40.22;;;;;;;3.63;100.00;102635.28;5203230;28;20017;-68
2021/03/17 04:49:20;;;;;;;92.20;38.00;;;;;;;3.69;100.00;102628.81;5202827;28;20052;-68
2021/03/17 04:51:52;;;;;;;79.90;30.98;;;;;;;3.80;100.00;102630.91;5202404;28;20028;-69
2021/03/17 04:54:23;;;;;;;75.88;30.10;;;;;;;3.70;100.00;102632.31;5202879;28;20030;-68
2021/03/17 04:56:56;;;;;;;80.10;30.13;;;;;;;3.73;100.00;102625.06;5203693;28;20060;-69
2021/03/17 04:59:26;;;;;;;77.80;30.30;;;;;;;3.73;100.00;102640.13;5201246;28;20025;-68
2021/03/17 05:01:57;;;;;;;77.60;30.00;;;;;;;3.79;100.00;102637.16;5201926;28;20021;-68
2021/03/17 05:04:28;;;;;;;80.38;30.73;;;;;;;3.84;100.00;102641.28;5201299;28;20061;-68
2021/03/17 05:06:59;;;;;;;71.47;29.50;;;;;;;3.80;100.00;102653.00;5202807;28;20116;-69
2021/03/17 05:09:30;;;;;;;75.45;28.85;;;;;;;3.82;100.00;102653.81;5193728;28;20022;-68
2021/03/17 05:12:04;;;;;;;71.13;28.60;;;;;;;3.80;100.00;102655.66;5197879;28;20072;-69
2021/03/17 05:14:36;;;;;;;75.35;28.80;;;;;;;3.82;100.00;102661.75;5201894;28;20030;-69
2021/03/17 05:17:08;;;;;;;75.82;29.63;;;;;;;3.87;100.00;102653.56;5203094;28;20040;-68
2021/03/17 05:19:41;;;;;;;75.05;31.55;;;;;;;3.92;100.00;102650.69;5202414;28;20104;-68
2021/03/17 05:22:12;;;;;;;77.80;31.45;;;;;;;3.96;100.00;102644.25;5202223;28;20021;-69
2021/03/17 05:24:43;;;;;;;72.03;29.90;;;;;;;3.94;100.00;102652.31;5202108;28;20032;-68
2021/03/17 05:27:19;;;;;;;74.40;30.73;;;;;;;3.93;100.00;102653.25;5201914;28;20139;-68
2021/03/17 05:29:50;;;;;;;78.63;30.92;;;;;;;3.93;100.00;102653.25;5201791;28;20479;-68
2021/03/17 05:32:21;;;;;;;73.60;31.00;;;;;;;3.94;100.00;102648.78;5202109;28;20124;-69
2021/03/17 05:34:59;;;;;;;78.43;32.75;;;;;;;4.00;100.00;102653.78;5201722;28;20152;-68
2021/03/17 05:37:30;;;;;;;80.88;30.20;;;;;;;4.00;100.00;102653.78;5201609;28;20042;-68
2021/03/17 05:40:01;;;;;;;77.03;31.13;;;;;;;4.04;100.00;102650.03;5201853;28;20075;-69
2021/03/17 05:42:32;;;;;;;77.68;30.17;;;;;;;4.04;100.00;102644.72;5201979;28;20028;-68
2021/03/17 05:45:03;;;;;;;78.05;30.20;;;;;;;4.07;100.00;102634.81;5202152;28;20029;-68
2021/03/17 05:47:35;;;;;;;83.97;31.83;;;;;;;4.09;100.00;102643.53;5202031;28;20052;-69
2021/03/17 05:50:07;;;;;;;86.68;32.28;;;;;;;4.05;100.00;102644.63;5200973;28;20029;-69
2021/03/17 05:52:40;;;;;;;87.18;33.05;;;;;;;4.12;100.00;102645.19;5202079;28;20121;-69
2021/03/17 05:55:13;;;;;;;93.32;34.50;;;;;;;4.11;100.00;102641.63;5202023;28;20475;-68
2021/03/17 05:57:45;;;;;;;93.95;34.30;;;;;;;4.11;100.00;102640.78;5202315;28;20501;-68
2021/03/17 06:00:23;;;;;;;96.07;38.80;;;;;;;4.09;100.00;102643.53;5201054;28;20017;-68
2021/03/17 06:02:54;;;;;;;98.68;37.15;;;;;;;4.16;100.00;102633.44;5201865;28;20025;-68
2021/03/17 06:05:24;;;;;;;112.30;48.92;;;;;;;4.22;100.00;102637.56;5201628;28;20017;-68
2021/03/17 06:08:03;;;;;;;111.25;42.17;;;;;;;4.18;100.00;102641.34;5202153;28;20397;-68
2021/03/17 06:10:34;;;;;;;109.60;45.58;;;;;;;4.15;100.00;102634.38;5200798;28;20040;-68
2021/03/17 06:13:11;;;;;;;112.72;38.63;;;;;;;4.17;100.00;102643.16;5201740;28;20045;-69
2021/03/17 06:15:49;;;;;;;106.78;37.95;;;;;;;4.22;100.00;102638.44;5201270;28;20029;-68
2021/03/17 06:18:25;;;;;;;105.43;39.17;;;;;;;4.30;100.00;102633.56;5215419;28;20551;-68
2021/03/17 06:20:56;;;;;;;95.18;36.53;;;;;;;4.31;100.00;102637.06;5201285;28;20466;-69
2021/03/17 06:23:27;;;;;;;105.93;37.63;;;;;;;4.29;100.00;102637.16;5201080;28;20498;-68
2021/03/17 06:25:58;;;;;;;95.13;35.03;;;;;;;4.32;100.00;102625.53;5201798;28;20055;-68
2021/03/17 06:28:29;;;;;;;94.47;34.63;;;;;;;4.32;100.00;102623.72;5205542;28;20025;-68
2021/03/17 06:30:59;;;;;;;100.05;35.58;;;;;;;4.34;100.00;102615.66;5204750;28;20101;-69
2021/03/17 06:33:30;;;;;;;104.68;35.00;;;;;;;4.31;100.00;102603.38;5205645;28;20029;-68
2021/03/17 06:36:17;;;;;;;109.43;38.67;;;;;;;4.34;100.00;102613.00;5204703;28;20033;-68
2021/03/17 06:38:49;;;;;;;111.45;35.75;;;;;;;4.40;100.00;102610.00;5205648;28;20482;-69
2021/03/17 06:41:20;;;;;;;95.13;35.08;;;;;;;4.40;100.00;102624.16;5204727;28;20385;-68
2021/03/17 06:43:50;;;;;;;96.63;33.22;;;;;;;4.45;100.00;102625.72;5205633;28;20030;-69
2021/03/17 06:46:21;;;;;;;100.25;35.33;;;;;;;4.43;100.00;102628.47;5204689;28;20025;-68
2021/03/17 06:48:51;;;;;;;95.75;34.30;;;;;;;4.47;100.00;102631.78;5206075;28;20018;-68
2021/03/17 06:51:22;;;;;;;664.90;303.48;;;;;;;4.53;100.00;102635.00;5204580;28;20029;-68
2021/03/17 06:53:55;;;;;;;120.80;49.10;;;;;;;4.52;100.00;102641.25;5205333;28;20056;-68
2021/03/17 06:56:33;;;;;;;92.80;33.58;;;;;;;4.56;100.00;102642.78;5205281;28;20171;-68
2021/03/17 06:59:06;;;;;;;98.68;32.97;;;;;;;4.59;100.00;102636.44;5203553;28;20025;-68
2021/03/17 07:01:46;;;;;;;89.28;32.88;;;;;;;4.63;100.00;102638.00;5204788;28;20104;-70
2021/03/17 07:04:17;;;;;;;72.28;27.17;;;;;;;4.72;100.00;102637.50;5205431;28;20109;-70
2021/03/17 07:06:58;;;;;;;72.38;29.85;;;;;;;4.83;100.00;102628.94;5204932;28;20026;-70
2021/03/17 07:09:31;;;;;;;61.78;27.15;;;;;;;4.92;100.00;102636.41;5205107;28;20030;-70
2021/03/17 07:12:30;;;;;;;59.45;23.73;;;;;;;5.01;100.00;102629.69;5204295;28;20170;-70
2021/03/17 07:15:08;;;;;;;45.78;20.33;;;;;;;5.15;100.00;102635.09;5204788;28;20064;-70
2021/03/17 07:17:39;;;;;;;60.00;20.63;;;;;;;5.22;100.00;102631.16;5203947;28;20029;-70
2021/03/17 07:20:10;;;;;;;39.15;17.70;;;;;;;5.28;100.00;102635.25;5204441;28;20028;-70
2021/03/17 07:22:40;;;;;;;33.83;15.35;;;;;;;5.47;100.00;102635.88;5204601;28;20052;-71
2021/03/17 07:25:11;;;;;;;29.65;12.18;;;;;;;5.60;100.00;102631.56;5204645;28;20035;-71
2021/03/17 07:27:56;;;;;;;25.38;11.40;;;;;;;5.55;100.00;102625.66;5204560;28;20285;-71
2021/03/17 07:30:27;;;;;;;26.75;11.32;;;;;;;5.65;100.00;102624.16;5204060;28;20565;-70
2021/03/17 07:33:00;;;;;;;18.02;8.75;;;;;;;5.75;100.00;102624.47;5204454;28;20108;-71
2021/03/17 07:35:34;;;;;;;16.98;8.77;;;;;;;5.78;100.00;102634.94;5205037;28;20432;-70
2021/03/17 07:38:06;;;;;;;17.15;8.98;;;;;;;5.78;100.00;102634.09;5204118;28;20033;-71
2021/03/17 07:40:41;;;;;;;17.17;7.65;;;;;;;5.76;100.00;102639.50;5203802;28;20038;-71
2021/03/17 07:43:13;;;;;;;13.88;6.88;;;;;;;5.73;100.00;102634.38;5203787;28;20025;-71
2021/03/17 07:45:44;;;;;;;21.63;8.63;;;;;;;5.82;100.00;102636.44;5219661;28;20034;-71
2021/03/17 07:48:15;;;;;;;13.68;6.35;;;;;;;5.90;100.00;102639.53;5204368;28;20025;-71
2021/03/17 07:50:47;;;;;;;9.90;5.65;;;;;;;5.86;100.00;102637.13;5203037;28;20056;-71
2021/03/17 07:53:23;;;;;;;14.40;5.53;;;;;;;5.76;100.00;102651.94;5204162;28;20412;-71
2021/03/17 07:55:56;;;;;;;13.35;5.82;;;;;;;5.80;100.00;102657.00;5196557;28;20041;-71
2021/03/17 07:58:27;;;;;;;12.80;5.80;;;;;;;5.76;100.00;102662.59;5201847;28;20513;-70
2021/03/17 08:00:58;;;;;;;11.20;5.07;;;;;;;5.89;100.00;102655.59;5201499;28;20564;-71
2021/03/17 08:03:29;;;;;;;19.77;5.90;;;;;;;5.88;100.00;102665.41;5201534;28;20065;-70
2021/03/17 08:06:01;;;;;;;13.85;5.68;;;;;;;5.91;100.00;102648.38;5201969;28;20029;-71
2021/03/17 08:08:31;;;;;;;14.40;4.95;;;;;;;5.92;100.00;102645.66;5201297;28;20091;-71
2021/03/17 08:11:02;;;;;;;12.30;5.70;;;;;;;5.94;100.00;102642.91;5188263;28;20025;-71
2021/03/17 08:13:34;;;;;;;10.25;5.18;;;;;;;6.02;100.00;102653.09;5201297;28;20036;-71
2021/03/17 08:16:05;;;;;;;11.50;5.13;;;;;;;6.00;100.00;102653.19;5201856;28;20021;-71
2021/03/17 08:18:36;;;;;;;13.60;5.35;;;;;;;5.91;100.00;102667.91;5201518;28;20108;-71
2021/03/17 08:21:07;;;;;;;13.05;5.88;;;;;;;5.93;100.00;102655.38;5201422;28;20108;-71
2021/03/17 08:23:41;;;;;;;11.73;5.45;;;;;;;5.87;100.00;102661.03;5201408;28;20029;-71
2021/03/17 08:26:33;;;;;;;9.82;5.60;;;;;;;5.87;100.00;102665.47;5201334;28;20025;-71
2021/03/17 08:29:13;;;;;;;12.00;5.47;;;;;;;5.79;100.00;102657.09;5190770;28;20032;-71
2021/03/17 08:31:44;;;;;;;12.75;5.38;;;;;;;5.74;100.00;102670.69;5215445;28;20117;-71
2021/03/17 08:34:18;;;;;;;12.85;5.95;;;;;;;5.81;100.00;102665.84;5202021;28;20497;-71
2021/03/17 08:36:51;;;;;;;7.85;4.80;;;;;;;5.74;100.00;102673.34;5200588;28;20036;-71
2021/03/17 08:39:32;;;;;;;13.63;5.78;;;;;;;5.84;100.00;102671.00;5201659;28;20029;-71
2021/03/17 08:42:04;;;;;;;11.98;5.88;;;;;;;5.77;100.00;102681.16;5200492;28;20112;-71
2021/03/17 08:44:38;;;;;;;8.38;4.82;;;;;;;5.86;100.00;102695.75;5201495;28;20041;-71
2021/03/17 08:47:13;;;;;;;12.00;5.47;;;;;;;5.81;100.00;102704.00;5200886;28;20529;-71
2021/03/17 08:49:45;;;;;;;;;;;;;;;5.76;100.00;102703.41;5201464;28;20064;-71
2021/03/17 08:52:19;;;;;;;11.20;5.70;;;;;;;5.72;100.00;102701.88;5200286;28;19919;-71
2021/03/17 08:54:53;;;;;;;12.23;5.78;;;;;;;5.76;100.00;102708.72;5201526;28;20766;-71
2021/03/17 08:57:24;;;;;;;19.23;6.23;;;;;;;5.68;100.00;102708.34;5200538;28;20033;-72
2021/03/17 09:00:00;;;;;;;16.48;6.72;;;;;;;5.68;100.00;102713.66;5201524;28;20063;-69
2021/03/17 09:02:31;;;;;;;9.07;5.53;;;;;;;5.78;100.00;102712.19;5200338;28;20018;-69
2021/03/17 09:05:04;;;;;;;9.90;5.75;;;;;;;5.81;100.00;102719.97;5201553;28;20509;-69
2021/03/17 09:07:35;;;;;;;11.15;5.65;;;;;;;5.87;100.00;102709.00;5200647;28;20029;-69
2021/03/17 09:10:06;;;;;;;9.43;5.40;;;;;;;5.95;100.00;102709.41;5186889;28;20399;-69
2021/03/17 09:12:37;;;;;;;21.38;5.53;;;;;;;5.93;100.00;102718.44;5200347;28;20555;-69
2021/03/17 09:15:15;;;;;;;10.68;5.80;;;;;;;5.94;100.00;102720.16;5201007;28;20061;-69
2021/03/17 09:17:50;;;;;;;9.93;5.60;;;;;;;6.03;100.00;102708.09;5200422;28;20116;-69
2021/03/17 09:20:38;;;;;;;8.02;5.60;;;;;;;6.04;100.00;102702.69;5200368;28;20025;-69
2021/03/17 09:23:22;;;;;;;21.65;5.40;;;;;;;6.05;100.00;102711.53;5200142;28;20030;-69
2021/03/17 09:25:55;;;;;;;11.75;5.68;;;;;;;5.89;100.00;102707.06;5200981;28;20037;-69
2021/03/17 09:28:31;;;;;;;11.07;5.50;;;;;;;6.00;100.00;102717.13;5200412;28;20033;-69
2021/03/17 09:31:06;;;;;;;9.85;6.07;;;;;;;5.92;100.00;102717.59;5199249;28;20072;-68
2021/03/17 09:33:42;;;;;;;10.48;6.20;;;;;;;5.91;100.00;102710.53;5200173;28;20171;-69
2021/03/17 09:36:18;;;;;;;11.40;5.53;;;;;;;5.86;100.00;102720.56;5200613;28;20096;-69
2021/03/17 09:38:51;;;;;;;10.57;6.15;;;;;;;5.88;100.00;102710.69;5200491;28;20034;-69
2021/03/17 09:41:28;;;;;;;9.82;6.20;;;;;;;5.83;100.00;102702.13;5198938;28;20086;-69
2021/03/17 09:44:00;;;;;;;12.00;5.57;;;;;;;5.96;100.00;102702.25;5200148;28;20085;-69
2021/03/17 09:46:42;;;;;;;11.15;5.25;;;;;;;6.00;100.00;102710.94;5200450;28;20029;-68
2021/03/17 09:49:15;;;;;;;7.53;4.95;;;;;;;6.17;100.00;102706.31;5200220;28;20475;-69
2021/03/17 09:51:49;;;;;;;10.27;4.97;;;;;;;6.26;100.00;102704.91;5199435;28;20070;-69
2021/03/17 09:54:22;;;;;;;8.75;4.63;;;;;;;6.34;100.00;102709.78;5199746;28;20029;-69
2021/03/17 09:56:55;;;;;;;6.93;4.22;;;;;;;6.44;100.00;102718.94;5200352;28;20057;-69
2021/03/17 09:59:30;;;;;;;14.98;3.28;;;;;;;6.26;100.00;102718.22;5199846;28;20029;-69
2021/03/17 10:02:01;;;;;;;4.65;2.28;;;;;;;6.25;100.00;102724.50;5198161;28;20021;-69
2021/03/17 10:04:35;;;;;;;5.88;2.50;;;;;;;6.27;100.00;102711.09;5199687;28;20528;-69
2021/03/17 10:07:06;;;;;;;4.57;2.60;;;;;;;6.21;100.00;102723.84;5199937;28;20033;-69
2021/03/17 10:09:37;;;;;;;5.03;2.15;;;;;;;6.21;100.00;102721.16;5190885;28;20057;-69
2021/03/17 10:12:16;;;;;;;3.05;2.25;;;;;;;6.09;100.00;102731.72;5195831;28;20080;-69
2021/03/17 10:14:49;;;;;;;3.97;2.20;;;;;;;6.04;100.00;102736.47;5198886;28;20063;-69
2021/03/17 10:17:21;;;;;;;4.30;2.30;;;;;;;5.94;100.00;102726.34;5200349;28;20022;-69
2021/03/17 10:19:54;;;;;;;3.25;2.40;;;;;;;5.90;100.00;102729.25;5199536;28;20022;-68
2021/03/17 10:22:27;;;;;;;3.92;2.17;;;;;;;6.08;100.00;102724.69;5199566;28;20028;-69
2021/03/17 10:25:00;;;;;;;2.55;2.17;;;;;;;6.46;100.00;102728.53;5198762;28;20057;-69
2021/03/17 10:27:34;;;;;;;2.97;1.90;;;;;;;6.65;100.00;102717.59;5200277;28;20485;-69
2021/03/17 10:30:09;;;;;;;5.40;1.90;;;;;;;6.89;100.00;102707.22;5198749;28;20021;-69
2021/03/17 10:32:41;;;;;;;5.32;1.70;;;;;;;7.21;100.00;102707.81;5199434;28;20417;-70
2021/03/17 10:35:14;;;;;;;3.67;1.40;;;;;;;7.46;100.00;102701.72;5199298;28;20029;-69
2021/03/17 10:37:46;;;;;;;2.22;1.55;;;;;;;7.52;100.00;102689.78;5199323;28;20029;-69
2021/03/17 10:40:19;;;;;;;3.72;1.55;;;;;;;7.55;100.00;102696.75;5199399;28;20033;-69
2021/03/17 10:42:55;;;;;;;5.25;2.00;;;;;;;7.53;100.00;102694.19;5199477;28;20167;-69
2021/03/17 10:45:30;;;;;;;3.00;1.42;;;;;;;7.57;100.00;102701.03;5199908;28;20026;-69
2021/03/17 10:48:15;;;;;;;2.38;1.55;;;;;;;7.56;100.00;102695.78;5199103;28;20017;-69
2021/03/17 10:50:46;;;;;;;4.88;1.67;;;;;;;7.34;100.00;102697.22;5198962;28;20071;-69
2021/03/17 10:53:25;;;;;;;3.90;1.75;;;;;;;7.32;100.00;102696.44;5199771;28;20033;-69
2021/03/17 10:55:58;;;;;;;1.85;1.08;;;;;;;7.04;100.00;102697.38;5198982;28;20029;-69
2021/03/17 10:58:30;;;;;;;1.92;1.40;;;;;;;6.90;100.00;102689.38;5199193;28;20477;-69
2021/03/17 11:01:03;;;;;;;2.35;1.33;;;;;;;6.88;100.00;102693.97;5198561;28;20021;-69
2021/03/17 11:03:35;;;;;;;3.42;1.38;;;;;;;6.99;100.00;102695.00;5199573;28;20551;-69
2021/03/17 11:06:11;;;;;;;2.35;1.55;;;;;;;6.91;100.00;102694.63;5198877;28;20040;-69
2021/03/17 11:08:44;;;;;;;4.93;1.63;;;;;;;6.89;100.00;102698.34;5196358;28;20072;-69
2021/03/17 11:11:14;;;;;;;1.42;1.30;;;;;;;7.05;100.00;102692.88;5187841;28;20100;-69
2021/03/17 11:13:46;;;;;;;4.72;1.50;;;;;;;6.93;100.00;102698.06;5202083;28;20116;-69
2021/03/17 11:16:22;;;;;;;3.67;1.55;;;;;;;7.19;100.00;102695.53;5203208;28;20033;-69
2021/03/17 11:18:53;;;;;;;;;;;;;;;7.18;100.00;102702.69;5203332;28;20033;-69
2021/03/17 11:21:26;;;;;;;5.70;1.60;;;;;;;6.98;100.00;102698.63;5217482;28;19909;-69
2021/03/17 11:23:59;;;;;;;4.00;1.40;;;;;;;6.74;100.00;102695.69;5190198;28;20033;-69
2021/03/17 11:26:36;;;;;;;2.00;1.52;;;;;;;6.57;100.00;102700.34;5202718;28;20022;-69
2021/03/17 11:29:15;;;;;;;2.35;1.67;;;;;;;6.48;100.00;102708.00;5202792;28;20029;-70
2021/03/17 11:31:49;;;;;;;2.88;1.90;;;;;;;6.21;100.00;102707.84;5198491;28;20041;-69
2021/03/17 11:34:21;;;;;;;2.13;1.80;;;;;;;6.20;100.00;102714.13;5203117;28;20072;-69
2021/03/17 11:36:52;;;;;;;3.83;2.10;;;;;;;6.20;100.00;102711.47;5202607;28;20417;-69
2021/03/17 11:39:22;;;;;;;4.55;1.80;;;;;;;6.31;100.00;102713.47;5202325;28;20025;-69
2021/03/17 11:41:53;;;;;;;5.82;2.50;;;;;;;6.20;100.00;102715.94;5203548;28;20029;-69
2021/03/17 11:44:23;;;;;;;3.33;2.20;;;;;;;6.04;100.00;102716.00;5203097;28;20044;-69